Time;durP1;ratioP1;P1;durP2;ratioP2;P2;SDS_P1;SDS_P2;PMS_P1;PMS_P2;Temp;Humidity;BMP_temperature;BMP_pressure;BME280_temperature;BME280_humidity;BME280_pressure;Samples;Min_cycle;Max_cycle;Signal;HPM_P1;HPM_P2
2023/05/07 00:00:18;;;;;;;0.50;0.50;;;;;;;5.31;45.58;101767.56;4989380;28;20030;-68
2023/05/07 00:02:45;;;;;;;0.50;0.50;;;;;;;5.20;45.51;101758.56;5006680;28;20069;-69
2023/05/07 00:05:11;;;;;;;0.50;0.50;;;;;;;5.24;45.59;101757.84;5007139;28;20082;-68
2023/05/07 00:07:37;;;;;;;0.50;0.50;;;;;;;5.01;45.89;101755.34;5006459;28;20034;-69
2023/05/07 00:10:03;;;;;;;0.50;0.50;;;;;;;5.14;45.54;101758.34;5005831;28;20042;-69
2023/05/07 00:12:31;;;;;;;0.50;0.50;;;;;;;5.16;45.42;101761.88;5006655;28;20090;-69
2023/05/07 00:14:57;;;;;;;0.40;0.40;;;;;;;5.00;45.51;101758.72;5006855;28;20062;-69
2023/05/07 00:17:23;;;;;;;0.50;0.50;;;;;;;5.30;44.84;101749.47;5006925;28;20023;-68
2023/05/07 00:19:48;;;;;;;0.57;0.57;;;;;;;5.21;44.82;101762.88;5006741;28;20032;-68
2023/05/07 00:22:14;;;;;;;0.40;0.40;;;;;;;4.99;45.47;101758.66;5006821;28;20100;-68
2023/05/07 00:24:39;;;;;;;0.50;0.50;;;;;;;5.34;44.47;101761.63;5006141;28;20037;-69
2023/05/07 00:27:05;;;;;;;0.50;0.50;;;;;;;4.93;45.12;101756.75;5006439;28;20074;-68
2023/05/07 00:29:30;;;;;;;0.50;0.50;;;;;;;4.84;45.38;101754.69;5006541;28;20058;-69
2023/05/07 00:31:55;;;;;;;0.50;0.50;;;;;;;4.90;45.31;101766.94;5006362;28;20019;-70
2023/05/07 00:34:21;;;;;;;0.50;0.50;;;;;;;4.80;45.49;101757.97;5006563;28;20022;-69
2023/05/07 00:36:46;;;;;;;0.40;0.40;;;;;;;4.89;45.31;101758.31;5006434;28;20089;-68
2023/05/07 00:39:12;;;;;;;0.50;0.50;;;;;;;4.89;45.14;101763.47;5006309;28;20054;-69
2023/05/07 00:41:37;;;;;;;0.50;0.50;;;;;;;4.87;45.21;101754.84;4988667;28;20070;-68
2023/05/07 00:44:02;;;;;;;0.50;0.50;;;;;;;4.94;44.74;101755.91;5006224;28;20090;-69
2023/05/07 00:46:30;;;;;;;0.70;0.70;;;;;;;4.65;45.41;101756.56;5006065;28;20030;-69
2023/05/07 00:48:56;;;;;;;0.50;0.50;;;;;;;4.44;45.79;101748.94;5006024;28;20032;-69
2023/05/07 00:51:22;;;;;;;0.50;0.50;;;;;;;4.44;45.83;101752.38;5006066;28;20017;-70
2023/05/07 00:53:48;;;;;;;0.50;0.50;;;;;;;4.68;45.32;101764.41;5006238;28;20120;-69
2023/05/07 00:56:13;;;;;;;0.50;0.50;;;;;;;4.35;45.84;101759.72;5006343;28;20423;-70
2023/05/07 00:58:40;;;;;;;0.50;0.50;;;;;;;4.33;46.11;101769.94;5005849;28;20033;-70
2023/05/07 01:01:06;;;;;;;0.50;0.50;;;;;;;4.50;45.70;101764.59;5005156;28;20034;-70
2023/05/07 01:03:31;;;;;;;0.50;0.50;;;;;;;4.43;45.71;101768.63;4987919;28;20034;-68
2023/05/07 01:05:58;;;;;;;0.70;0.70;;;;;;;4.54;45.46;101768.16;4988238;28;20450;-68
2023/05/07 01:08:26;;;;;;;0.50;0.50;;;;;;;4.36;46.06;101761.47;4988128;28;20037;-70
2023/05/07 01:10:52;;;;;;;0.50;0.50;;;;;;;4.34;45.89;101774.25;5005853;28;20033;-70
2023/05/07 01:13:19;;;;;;;0.50;0.50;;;;;;;4.40;45.78;101771.06;5005892;28;20070;-70
2023/05/07 01:15:45;;;;;;;0.50;0.50;;;;;;;4.45;45.53;101772.13;5005416;28;20031;-67
2023/05/07 01:18:10;;;;;;;0.50;0.50;;;;;;;4.28;45.74;101770.59;4988204;28;20109;-69
2023/05/07 01:20:36;;;;;;;0.50;0.50;;;;;;;4.06;46.24;101756.88;5005452;28;20030;-69
2023/05/07 01:23:03;;;;;;;0.50;0.50;;;;;;;4.16;46.39;101768.41;5005440;28;20042;-69
2023/05/07 01:25:29;;;;;;;0.43;0.43;;;;;;;4.39;45.74;101764.19;5005653;28;20102;-68
2023/05/07 01:27:54;;;;;;;0.50;0.50;;;;;;;4.21;46.00;101779.75;4999873;28;20062;-67
2023/05/07 01:30:21;;;;;;;0.50;0.50;;;;;;;4.17;46.06;101775.31;5005368;28;20097;-68
2023/05/07 01:33:15;;;;;;;0.50;0.50;;;;;;;4.06;46.41;101780.00;5005369;28;20023;-69
2023/05/07 01:35:45;;;;;;;0.50;0.50;;;;;;;3.95;46.47;101777.88;5003194;28;20038;-68
2023/05/07 01:38:12;;;;;;;0.50;0.50;;;;;;;3.97;46.66;101767.66;5005595;28;20427;-68
2023/05/07 01:40:37;;;;;;;0.50;0.50;;;;;;;4.22;46.09;101769.53;5005181;28;20079;-69
2023/05/07 01:43:03;;;;;;;0.50;0.50;;;;;;;3.86;46.78;101781.75;5005222;28;20155;-69
2023/05/07 01:45:30;;;;;;;0.50;0.50;;;;;;;3.90;46.61;101766.53;5005122;28;20038;-69
2023/05/07 01:47:57;;;;;;;0.50;0.50;;;;;;;4.01;46.71;101776.38;5003670;28;20029;-68
2023/05/07 01:50:23;;;;;;;0.50;0.50;;;;;;;3.74;46.79;101772.72;5005274;28;20029;-69
2023/05/07 01:52:50;;;;;;;0.50;0.50;;;;;;;3.86;46.85;101780.06;5005176;28;20081;-69
2023/05/07 01:55:16;;;;;;;0.50;0.50;;;;;;;3.64;47.29;101781.75;5005129;28;20022;-69
2023/05/07 01:57:41;;;;;;;0.50;0.50;;;;;;;3.51;47.66;101788.03;5003477;28;20026;-70
2023/05/07 02:00:08;;;;;;;0.50;0.50;;;;;;;3.54;47.63;101777.00;5003439;28;20022;-69
2023/05/07 02:02:33;;;;;;;0.50;0.50;;;;;;;3.51;47.67;101788.03;5003690;28;20034;-69
2023/05/07 02:05:00;;;;;;;0.50;0.50;;;;;;;3.71;47.48;101788.88;5003378;28;20022;-68
2023/05/07 02:07:26;;;;;;;0.50;0.50;;;;;;;3.45;47.94;101788.63;5003491;28;20026;-69
2023/05/07 02:09:52;;;;;;;0.50;0.50;;;;;;;3.46;47.86;101784.38;5003415;28;20095;-69
2023/05/07 02:12:17;;;;;;;0.50;0.50;;;;;;;3.42;47.84;101783.38;5004810;28;20177;-69
2023/05/07 02:14:42;;;;;;;0.50;0.50;;;;;;;3.41;48.21;101786.75;5004717;28;20026;-69
2023/05/07 02:17:08;;;;;;;0.50;0.50;;;;;;;3.45;48.15;101793.78;5004468;28;20037;-70
2023/05/07 02:19:34;;;;;;;0.47;0.47;;;;;;;3.38;48.32;101796.00;5003260;28;20026;-69
2023/05/07 02:21:59;;;;;;;0.50;0.50;;;;;;;3.39;48.52;101783.25;5004466;28;20033;-69
2023/05/07 02:24:25;;;;;;;0.50;0.50;;;;;;;3.24;49.02;101775.75;5003311;28;20014;-69
2023/05/07 02:26:50;;;;;;;0.50;0.50;;;;;;;3.04;49.50;101778.31;5004560;28;20053;-70
2023/05/07 02:29:15;;;;;;;0.50;0.50;;;;;;;3.35;49.26;101771.09;5004626;28;20031;-69
2023/05/07 02:31:41;;;;;;;0.50;0.50;;;;;;;3.09;49.82;101781.06;5004356;28;20014;-69
2023/05/07 02:34:06;;;;;;;0.50;0.50;;;;;;;2.88;50.55;101778.41;5004358;28;20026;-70
2023/05/07 02:36:31;;;;;;;0.50;0.50;;;;;;;2.70;50.79;101785.34;5004596;28;20415;-70
2023/05/07 02:38:57;;;;;;;0.43;0.43;;;;;;;2.85;50.90;101786.84;5004458;28;20030;-70
2023/05/07 02:41:22;;;;;;;0.50;0.50;;;;;;;2.83;50.89;101799.63;5004458;28;20033;-69
2023/05/07 02:43:48;;;;;;;0.60;0.60;;;;;;;2.65;51.04;101791.06;4987020;28;20102;-69
2023/05/07 02:46:13;;;;;;;0.47;0.47;;;;;;;2.68;51.13;101791.22;5004425;28;20081;-70
2023/05/07 02:48:38;;;;;;;0.40;0.40;;;;;;;3.09;50.62;101791.34;5004297;28;20030;-69
2023/05/07 02:51:05;;;;;;;0.60;0.60;;;;;;;2.91;50.56;101794.84;5004328;28;20046;-68
2023/05/07 02:53:31;;;;;;;0.50;0.50;;;;;;;2.76;51.15;101796.69;4986882;28;20057;-69
2023/05/07 02:55:57;;;;;;;0.50;0.50;;;;;;;2.70;51.40;101802.44;5004369;28;20026;-69
2023/05/07 02:58:23;;;;;;;0.50;0.50;;;;;;;2.57;51.61;101800.97;5004316;28;20038;-69
2023/05/07 03:00:48;;;;;;;0.50;0.50;;;;;;;2.89;51.10;101791.31;4986305;28;20097;-69
2023/05/07 03:03:14;;;;;;;0.50;0.50;;;;;;;2.66;51.27;101787.69;5004357;28;20053;-69
2023/05/07 03:05:40;;;;;;;0.50;0.50;;;;;;;2.88;51.24;101799.81;5004474;28;20085;-70
2023/05/07 03:08:06;;;;;;;0.50;0.50;;;;;;;2.63;51.71;101791.00;4986739;28;20102;-70
2023/05/07 03:10:32;;;;;;;0.50;0.50;;;;;;;2.61;51.53;101787.47;5004286;28;20026;-70
2023/05/07 03:12:57;;;;;;;0.50;0.50;;;;;;;2.50;52.05;101788.66;5004327;28;20030;-70
2023/05/07 03:15:23;;;;;;;0.50;0.50;;;;;;;2.42;52.19;101788.28;5004156;28;20030;-69
2023/05/07 03:17:48;;;;;;;0.50;0.50;;;;;;;2.52;52.26;101790.50;4986575;28;20030;-69
2023/05/07 03:20:14;;;;;;;0.50;0.50;;;;;;;2.41;52.28;101781.41;5004112;28;20026;-70
2023/05/07 03:22:40;;;;;;;0.40;0.40;;;;;;;2.61;51.98;101787.47;4986473;28;20089;-70
2023/05/07 03:25:06;;;;;;;0.50;0.50;;;;;;;2.57;52.18;101785.59;5005253;28;20106;-68
2023/05/07 03:27:31;;;;;;;0.50;0.50;;;;;;;2.58;51.99;101795.03;5007732;28;20054;-69
2023/05/07 03:29:57;;;;;;;0.50;0.50;;;;;;;2.66;52.25;101788.56;5007776;28;20045;-69
2023/05/07 03:32:22;;;;;;;0.50;0.50;;;;;;;2.85;52.01;101784.28;5007596;28;20637;-69
2023/05/07 03:34:48;;;;;;;0.50;0.50;;;;;;;3.28;51.00;101780.22;5007665;28;20030;-68
2023/05/07 03:37:13;;;;;;;0.50;0.50;;;;;;;3.28;50.70;101776.75;4989903;28;20022;-68
2023/05/07 03:39:38;;;;;;;0.40;0.40;;;;;;;3.25;51.25;101784.31;5007514;28;20026;-70
2023/05/07 03:42:04;;;;;;;0.50;0.50;;;;;;;3.42;51.18;101788.50;4989840;28;20057;-70
2023/05/07 03:44:29;;;;;;;0.40;0.40;;;;;;;3.70;51.34;101781.13;5007564;28;20023;-69
2023/05/07 03:46:55;;;;;;;0.40;0.40;;;;;;;4.01;51.14;101784.09;5007369;28;20497;-70
2023/05/07 03:49:21;;;;;;;1.67;1.60;;;;;;;4.72;48.25;101788.56;5007464;28;20030;-68
2023/05/07 03:51:46;;;;;;;0.50;0.50;;;;;;;4.57;48.13;101796.56;5007367;28;20024;-69
2023/05/07 03:54:12;;;;;;;0.50;0.50;;;;;;;4.73;47.83;101792.03;5007290;28;20026;-68
2023/05/07 03:56:37;;;;;;;0.50;0.50;;;;;;;4.62;48.11;101787.34;5007189;28;20113;-69
2023/05/07 03:59:02;;;;;;;0.50;0.50;;;;;;;4.75;48.02;101792.94;5006859;28;20018;-70
2023/05/07 04:01:28;;;;;;;0.52;0.52;;;;;;;4.88;47.44;101784.88;5007022;28;20554;-70
2023/05/07 04:03:53;;;;;;;0.50;0.50;;;;;;;5.25;46.22;101781.91;5007161;28;20570;-69
2023/05/07 04:06:19;;;;;;;0.50;0.50;;;;;;;5.15;46.26;101776.41;5007176;28;20022;-69
2023/05/07 04:08:44;;;;;;;1.13;1.13;;;;;;;5.06;47.06;101799.25;5006836;28;20086;-68
2023/05/07 04:11:10;;;;;;;0.40;0.40;;;;;;;5.26;46.54;101799.97;5007030;28;20489;-69
2023/05/07 04:13:35;;;;;;;0.40;0.40;;;;;;;5.27;46.94;101788.84;5006952;28;20033;-70
2023/05/07 04:16:05;;;;;;;0.40;0.40;;;;;;;5.60;46.02;101796.84;4989229;28;20026;-70
2023/05/07 04:18:30;;;;;;;13.32;5.05;;;;;;;5.77;45.41;101792.25;5006905;28;20026;-70
2023/05/07 04:20:56;;;;;;;0.40;0.40;;;;;;;5.90;44.97;101789.28;5006750;28;20113;-69
2023/05/07 04:23:21;;;;;;;0.50;0.50;;;;;;;5.92;44.45;101779.91;5006897;28;20026;-70
2023/05/07 04:25:46;;;;;;;0.40;0.40;;;;;;;6.06;44.03;101790.69;5006833;28;20436;-69
2023/05/07 04:28:12;;;;;;;0.50;0.50;;;;;;;6.19;43.64;101791.97;5006637;28;20042;-68
2023/05/07 04:30:38;;;;;;;0.50;0.50;;;;;;;6.17;43.92;101795.31;5006543;28;20180;-68
2023/05/07 04:33:03;;;;;;;0.50;0.50;;;;;;;6.42;42.91;101799.56;5006519;28;20037;-71
2023/05/07 04:35:29;;;;;;;0.50;0.50;;;;;;;6.23;43.17;101792.94;5006377;28;20030;-73
2023/05/07 04:37:54;;;;;;;0.40;0.40;;;;;;;6.20;43.67;101796.31;5006495;28;20062;-69
2023/05/07 04:40:20;;;;;;;0.50;0.50;;;;;;;6.41;44.10;101800.41;5006509;28;20125;-69
2023/05/07 04:42:45;;;;;;;3.08;1.67;;;;;;;6.67;43.33;101784.84;5006615;28;20030;-68
2023/05/07 04:45:12;;;;;;;0.50;0.50;;;;;;;6.89;43.30;101798.38;5006669;28;20475;-69
2023/05/07 04:47:37;;;;;;;0.40;0.40;;;;;;;7.38;42.41;101802.31;5006266;28;20132;-69
2023/05/07 04:50:03;;;;;;;0.43;0.43;;;;;;;7.67;40.61;101800.50;5006233;28;20038;-68
2023/05/07 04:52:28;;;;;;;0.40;0.40;;;;;;;7.61;40.46;101789.13;5006134;28;20026;-69
2023/05/07 04:54:54;;;;;;;0.40;0.40;;;;;;;7.44;41.23;101798.16;4988659;28;20450;-69
2023/05/07 04:57:19;;;;;;;0.40;0.40;;;;;;;7.78;41.21;101799.94;5006073;28;20048;-69
2023/05/07 04:59:45;;;;;;;0.45;0.45;;;;;;;7.88;41.47;101788.97;5005968;28;20053;-70
2023/05/07 05:02:10;;;;;;;0.40;0.40;;;;;;;8.46;41.88;101803.28;5005763;28;20049;-69
2023/05/07 05:04:36;;;;;;;0.47;0.47;;;;;;;9.20;39.60;101800.50;5005931;28;20102;-69
2023/05/07 05:07:03;;;;;;;7.53;2.45;;;;;;;9.48;38.25;101803.66;5006027;28;20032;-69
2023/05/07 05:09:29;;;;;;;0.40;0.40;;;;;;;9.62;36.72;101785.75;5005629;28;20495;-69
2023/05/07 05:11:54;;;;;;;0.40;0.40;;;;;;;9.37;37.05;101803.47;4988282;28;20022;-69
2023/05/07 05:14:20;;;;;;;0.40;0.40;;;;;;;9.35;36.65;101802.56;5005955;28;20022;-68
2023/05/07 05:16:45;;;;;;;0.40;0.40;;;;;;;9.19;36.84;101801.38;5005477;28;20383;-69
2023/05/07 05:19:11;;;;;;;0.40;0.40;;;;;;;9.41;36.58;101802.66;5005769;28;20037;-69
2023/05/07 05:21:36;;;;;;;0.40;0.40;;;;;;;9.14;37.27;101796.09;5005486;28;20030;-70
2023/05/07 05:24:02;;;;;;;0.40;0.40;;;;;;;9.69;36.50;101804.00;5005658;28;20069;-71
2023/05/07 05:26:27;;;;;;;0.40;0.40;;;;;;;9.66;36.58;101781.50;5005328;28;20054;-69
2023/05/07 05:28:52;;;;;;;0.40;0.40;;;;;;;9.98;36.71;101795.88;5005549;28;20030;-70
2023/05/07 05:31:18;;;;;;;0.50;0.50;;;;;;;10.18;36.08;101793.59;5005475;28;20026;-69
2023/05/07 05:33:43;;;;;;;0.40;0.40;;;;;;;10.43;36.01;101796.56;4987647;28;20035;-70
2023/05/07 05:36:10;;;;;;;0.40;0.40;;;;;;;10.84;36.13;101808.41;4987753;28;20037;-71
2023/05/07 05:38:36;;;;;;;0.40;0.40;;;;;;;11.11;34.61;101809.59;5005224;28;20105;-71
2023/05/07 05:41:01;;;;;;;0.40;0.40;;;;;;;11.39;32.69;101809.03;5005200;28;20030;-70
2023/05/07 05:43:27;;;;;;;0.30;0.30;;;;;;;10.87;34.79;101811.03;5005105;28;20034;-69
2023/05/07 05:45:52;;;;;;;0.40;0.40;;;;;;;11.13;34.00;101822.63;4987423;28;20022;-68
2023/05/07 05:48:17;;;;;;;0.40;0.40;;;;;;;11.15;34.61;101807.91;5004593;28;20033;-68
2023/05/07 05:50:43;;;;;;;0.30;0.30;;;;;;;11.39;33.88;101809.03;5004782;28;20058;-70
2023/05/07 05:53:08;;;;;;;0.40;0.40;;;;;;;11.53;34.61;101809.19;5005225;28;20117;-70
2023/05/07 05:55:34;;;;;;;0.30;0.30;;;;;;;11.82;34.51;101808.59;4987670;28;20041;-70
2023/05/07 05:58:01;;;;;;;0.40;0.40;;;;;;;12.00;33.77;101804.41;5005127;28;20130;-69
2023/05/07 06:00:27;;;;;;;0.40;0.40;;;;;;;12.16;32.40;101810.63;5004874;28;20056;-69
2023/05/07 06:02:52;;;;;;;0.38;0.38;;;;;;;12.08;32.59;101810.56;5004925;28;20059;-70
2023/05/07 06:05:17;;;;;;;0.40;0.40;;;;;;;12.34;34.10;101809.91;4987485;28;20037;-69
2023/05/07 06:07:43;;;;;;;0.30;0.30;;;;;;;12.72;32.17;101812.72;4987147;28;20061;-69
2023/05/07 06:10:08;;;;;;;0.40;0.40;;;;;;;12.89;32.91;101813.66;5004742;28;20022;-70
2023/05/07 06:12:34;;;;;;;0.40;0.40;;;;;;;13.02;32.37;101809.38;5004893;28;20030;-70
2023/05/07 06:14:59;;;;;;;0.30;0.30;;;;;;;13.21;31.03;101806.84;5004911;28;20026;-70
2023/05/07 06:17:25;;;;;;;0.30;0.30;;;;;;;13.17;31.71;101802.50;4986925;28;20470;-69
2023/05/07 06:19:51;;;;;;;0.35;0.35;;;;;;;13.42;31.81;101822.56;5004801;28;20460;-68
2023/05/07 06:22:16;;;;;;;0.30;0.30;;;;;;;13.75;32.31;101811.31;5004624;28;20053;-69
2023/05/07 06:24:42;;;;;;;0.30;0.30;;;;;;;14.21;32.26;101822.66;5005223;28;20022;-70
2023/05/07 06:27:07;;;;;;;0.32;0.32;;;;;;;14.62;31.01;101817.34;5004624;28;20061;-70
2023/05/07 06:29:33;;;;;;;0.30;0.30;;;;;;;14.53;29.47;101815.63;5004586;28;20027;-69
2023/05/07 06:32:12;;;;;;;0.30;0.30;;;;;;;14.25;30.05;101813.03;4986722;28;20035;-70
2023/05/07 06:34:39;;;;;;;0.30;0.30;;;;;;;14.17;29.88;101825.28;5004728;28;20026;-70
2023/05/07 06:37:04;;;;;;;0.30;0.30;;;;;;;13.99;29.82;101813.97;5004536;28;20026;-69
2023/05/07 06:39:30;;;;;;;0.30;0.30;;;;;;;13.86;29.48;101810.47;5004664;28;20060;-69
2023/05/07 06:41:56;;;;;;;0.30;0.30;;;;;;;13.96;29.88;101816.56;5004458;28;20268;-70
2023/05/07 06:44:21;;;;;;;0.30;0.30;;;;;;;14.02;28.88;101821.78;5004646;28;20545;-70
2023/05/07 06:46:47;;;;;;;0.30;0.30;;;;;;;13.85;29.52;101812.19;5004327;28;20030;-69
2023/05/07 06:49:13;;;;;;;0.30;0.30;;;;;;;14.02;29.51;101828.75;5004491;28;20042;-69
2023/05/07 06:51:38;;;;;;;8.48;3.92;;;;;;;14.12;28.27;101830.50;5004629;28;20030;-69
2023/05/07 06:54:04;;;;;;;0.30;0.30;;;;;;;13.84;29.01;101823.53;5004673;28;20019;-70
2023/05/07 06:56:31;;;;;;;0.30;0.30;;;;;;;14.17;28.74;101838.31;5004533;28;20026;-69
2023/05/07 06:58:56;;;;;;;0.20;0.20;;;;;;;14.04;28.79;101824.41;5004140;28;20026;-69
2023/05/07 07:01:21;;;;;;;0.30;0.30;;;;;;;14.18;28.28;101833.09;5007383;28;20042;-70
2023/05/07 07:03:47;;;;;;;0.30;0.30;;;;;;;14.05;27.97;101839.19;4990671;28;20027;-69
2023/05/07 07:06:12;;;;;;;0.30;0.30;;;;;;;13.91;28.37;101839.19;5008257;28;20037;-69
2023/05/07 07:08:38;;;;;;;0.30;0.30;;;;;;;14.02;29.24;101832.22;5008245;28;20030;-69
2023/05/07 07:11:04;;;;;;;0.30;0.30;;;;;;;14.63;29.04;101837.41;4990579;28;20030;-70
2023/05/07 07:13:30;;;;;;;0.50;0.50;;;;;;;14.94;28.47;101823.38;5008109;28;20089;-70
2023/05/07 07:15:55;;;;;;;0.30;0.30;;;;;;;15.11;28.39;101821.53;5007768;28;20027;-70
2023/05/07 07:18:21;;;;;;;0.30;0.30;;;;;;;15.19;27.40;101824.13;5008067;28;20068;-71
2023/05/07 07:20:46;;;;;;;0.30;0.30;;;;;;;15.10;27.33;101830.28;5007937;28;20049;-71
2023/05/07 07:23:12;;;;;;;0.43;0.43;;;;;;;15.00;27.21;101844.25;5007881;28;20483;-69
2023/05/07 07:25:37;;;;;;;0.30;0.30;;;;;;;14.85;26.43;101825.16;5007887;28;20360;-70
2023/05/07 07:28:02;;;;;;;0.30;0.30;;;;;;;14.90;26.51;101837.34;5007470;28;20057;-70
2023/05/07 07:30:28;;;;;;;0.30;0.30;;;;;;;15.03;27.08;101827.69;5007629;28;20026;-69
2023/05/07 07:32:54;;;;;;;0.30;0.30;;;;;;;15.65;26.26;101829.09;5007781;28;20034;-70
2023/05/07 07:35:20;;;;;;;0.30;0.30;;;;;;;15.88;25.93;101835.94;5007459;28;20029;-70
2023/05/07 07:37:46;;;;;;;0.65;0.65;;;;;;;15.77;25.60;101826.38;5007588;28;20030;-70
2023/05/07 07:40:14;;;;;;;0.63;0.63;;;;;;;15.83;24.64;101823.72;5007313;28;20064;-70
2023/05/07 07:42:39;;;;;;;1.17;0.73;;;;;;;15.97;24.67;101822.75;5007289;28;20026;-69
2023/05/07 07:45:05;;;;;;;0.30;0.30;;;;;;;15.94;23.31;101833.25;5007430;28;20025;-69
2023/05/07 07:47:30;;;;;;;0.30;0.30;;;;;;;15.60;22.83;101829.13;5007070;28;20049;-70
2023/05/07 07:49:56;;;;;;;0.30;0.30;;;;;;;15.38;23.43;101828.41;5007082;28;20038;-69
2023/05/07 07:52:22;;;;;;;0.30;0.30;;;;;;;15.42;22.52;101824.88;5007507;28;20424;-69
2023/05/07 07:54:47;;;;;;;2.63;2.42;;;;;;;15.44;22.04;101833.59;5007424;28;20085;-69
2023/05/07 07:57:12;;;;;;;0.30;0.30;;;;;;;15.23;21.56;101830.22;5007391;28;20045;-73
2023/05/07 07:59:39;;;;;;;0.40;0.40;;;;;;;15.15;22.55;101830.25;5007027;28;20034;-65
2023/05/07 08:02:05;;;;;;;0.68;0.68;;;;;;;15.63;23.32;101820.38;5007004;28;20109;-63
2023/05/07 08:04:32;;;;;;;0.40;0.40;;;;;;;16.15;23.01;101821.75;5007014;28;20044;-63
2023/05/07 08:06:58;;;;;;;0.40;0.40;;;;;;;16.28;20.31;101829.50;5007036;28;20464;-66
2023/05/07 08:09:23;;;;;;;0.30;0.30;;;;;;;16.08;22.39;101815.72;5006898;28;20045;-70
2023/05/07 08:11:49;;;;;;;0.30;0.30;;;;;;;16.92;22.65;101821.81;4988703;28;20030;-66
2023/05/07 08:14:15;;;;;;;0.20;0.20;;;;;;;17.55;22.47;101819.25;5006744;28;20026;-65
2023/05/07 08:16:41;;;;;;;0.30;0.30;;;;;;;18.49;21.75;101815.06;5007209;28;20022;-70
2023/05/07 08:19:06;;;;;;;0.30;0.30;;;;;;;18.44;21.00;101822.16;5006989;28;20033;-68
2023/05/07 08:21:32;;;;;;;0.32;0.32;;;;;;;17.90;21.27;101808.19;5006775;28;20015;-68
2023/05/07 08:23:57;;;;;;;0.20;0.20;;;;;;;17.67;21.88;101815.56;5006567;28;20030;-69
2023/05/07 08:26:22;;;;;;;1.48;1.38;;;;;;;18.04;21.51;101810.56;5006210;28;20073;-66
2023/05/07 08:28:48;;;;;;;0.30;0.30;;;;;;;18.07;20.98;101821.91;5006702;28;20054;-69
2023/05/07 08:31:13;;;;;;;0.20;0.20;;;;;;;18.08;20.91;101821.00;4989193;28;20015;-70
2023/05/07 08:33:39;;;;;;;0.30;0.30;;;;;;;17.95;21.30;101822.13;4989229;28;20027;-71
2023/05/07 08:36:05;;;;;;;0.20;0.20;;;;;;;17.60;20.78;101813.94;5006377;28;20030;-71
2023/05/07 08:38:31;;;;;;;0.30;0.30;;;;;;;17.52;20.95;101821.94;5006368;28;20446;-61
2023/05/07 08:40:56;;;;;;;0.20;0.20;;;;;;;17.14;20.11;101810.22;5006215;28;20030;-65
2023/05/07 08:43:26;;;;;;;0.30;0.30;;;;;;;17.20;20.20;101807.50;5006309;28;20036;-64
2023/05/07 08:45:55;;;;;;;0.30;0.30;;;;;;;16.91;19.98;101821.81;5006231;28;20030;-62
2023/05/07 08:48:24;;;;;;;0.47;0.47;;;;;;;17.06;19.83;101819.00;5006133;28;20026;-64
2023/05/07 08:50:49;;;;;;;0.30;0.30;;;;;;;17.56;20.08;101814.84;5005934;28;20029;-63
2023/05/07 08:53:16;;;;;;;0.30;0.30;;;;;;;17.58;19.89;101815.69;5006153;28;20027;-63
2023/05/07 08:55:42;;;;;;;0.30;0.30;;;;;;;18.01;19.78;101827.28;5006120;28;20026;-63
2023/05/07 08:58:07;;;;;;;4.85;3.30;;;;;;;17.88;18.29;101809.97;5005945;28;20025;-66
2023/05/07 09:00:33;;;;;;;0.20;0.20;;;;;;;17.25;18.66;101823.19;5005713;28;20088;-66
2023/05/07 09:03:00;;;;;;;0.20;0.20;;;;;;;16.88;19.76;101800.88;5005422;28;20034;-65
2023/05/07 09:05:25;;;;;;;0.30;0.30;;;;;;;17.45;19.97;101812.38;5005973;28;20026;-66
2023/05/07 09:07:51;;;;;;;1.33;1.23;;;;;;;18.22;19.52;101809.44;4988216;28;20050;-66
2023/05/07 09:10:16;;;;;;;0.20;0.20;;;;;;;18.69;19.08;101809.41;5005600;28;20037;-69
2023/05/07 09:12:41;;;;;;;0.20;0.20;;;;;;;19.02;19.24;101816.63;5005606;28;20063;-69
2023/05/07 09:15:07;;;;;;;0.20;0.20;;;;;;;19.32;18.76;101803.72;5005599;28;20022;-69
2023/05/07 09:17:33;;;;;;;0.20;0.20;;;;;;;19.14;17.77;101814.66;5005458;28;20029;-68
2023/05/07 09:20:04;;;;;;;0.30;0.30;;;;;;;18.68;18.47;101807.69;5005681;28;20034;-64
2023/05/07 09:22:32;;;;;;;0.30;0.30;;;;;;;19.02;18.77;101810.50;5004402;28;20023;-66
2023/05/07 09:24:58;;;;;;;0.30;0.30;;;;;;;19.89;19.04;101802.38;5005409;28;20036;-65
2023/05/07 09:27:23;;;;;;;0.70;0.70;;;;;;;20.78;16.55;101807.94;5005358;28;20072;-66
2023/05/07 09:29:49;;;;;;;0.20;0.20;;;;;;;20.25;17.56;101810.25;4988009;28;20030;-65
2023/05/07 09:32:15;;;;;;;0.20;0.20;;;;;;;20.40;15.98;101810.75;5005317;28;20061;-65
2023/05/07 09:34:42;;;;;;;4.13;1.48;;;;;;;19.88;16.00;101812.06;5005473;28;20109;-66
2023/05/07 09:37:07;;;;;;;0.20;0.20;;;;;;;19.66;17.12;101820.50;5005220;28;20022;-64
2023/05/07 09:39:43;;;;;;;0.20;0.20;;;;;;;20.48;15.86;101811.38;5005114;28;20022;-65
2023/05/07 09:42:09;;;;;;;0.75;0.68;;;;;;;20.00;15.59;101808.22;5005093;28;20088;-65
2023/05/07 09:44:35;;;;;;;0.20;0.20;;;;;;;19.83;15.99;101798.13;5005399;28;20109;-70
2023/05/07 09:47:04;;;;;;;0.20;0.20;;;;;;;20.12;16.47;101809.72;5004907;28;20037;-65
2023/05/07 09:49:30;;;;;;;0.63;0.63;;;;;;;20.48;16.07;101795.56;5005051;28;20475;-65
2023/05/07 09:51:59;;;;;;;0.20;0.20;;;;;;;20.72;16.29;101798.41;4987392;28;20488;-66
2023/05/07 09:54:25;;;;;;;0.20;0.20;;;;;;;21.33;16.09;101785.19;5004930;28;20113;-65
2023/05/07 09:56:52;;;;;;;0.15;0.15;;;;;;;21.65;16.26;101789.44;5004857;28;20027;-64
2023/05/07 09:59:20;;;;;;;0.20;0.20;;;;;;;21.88;15.52;101800.19;5005041;28;20050;-65
2023/05/07 10:01:45;;;;;;;1.50;1.42;;;;;;;21.82;15.40;101793.28;5004849;28;20034;-65
2023/05/07 10:04:12;;;;;;;0.20;0.20;;;;;;;21.65;15.80;101791.19;5004935;28;20026;-68
2023/05/07 10:06:38;;;;;;;0.20;0.20;;;;;;;21.61;16.10;101787.81;5004638;28;20478;-66
2023/05/07 10:09:07;;;;;;;0.20;0.20;;;;;;;21.57;15.44;101777.38;5004888;28;20030;-66
2023/05/07 10:11:36;;;;;;;0.10;0.10;;;;;;;22.24;15.07;101778.63;5004148;28;20018;-64
2023/05/07 10:14:03;;;;;;;0.13;0.13;;;;;;;22.36;15.31;101784.41;5004782;28;20084;-64
2023/05/07 10:16:32;;;;;;;0.30;0.30;;;;;;;22.73;13.41;101780.41;5004534;28;20526;-64
2023/05/07 10:18:58;;;;;;;0.20;0.20;;;;;;;21.55;14.18;101786.22;4986881;28;20026;-65
2023/05/07 10:21:27;;;;;;;0.20;0.20;;;;;;;21.05;14.31;101784.28;5004598;28;20042;-64
2023/05/07 10:24:05;;;;;;;0.20;0.20;;;;;;;20.30;14.73;101783.78;5004791;28;20019;-64
2023/05/07 10:26:32;;;;;;;0.20;0.20;;;;;;;19.72;15.33;101784.34;5004875;28;20042;-65
2023/05/07 10:29:03;;;;;;;0.20;0.20;;;;;;;19.12;15.57;101779.63;4987211;28;20030;-65
2023/05/07 10:31:41;;;;;;;1.00;0.85;;;;;;;19.20;15.89;101785.59;5004176;28;20022;-65
2023/05/07 10:34:14;;;;;;;0.30;0.30;;;;;;;19.42;16.48;101790.34;5004301;28;20077;-65
2023/05/07 10:36:39;;;;;;;0.20;0.20;;;;;;;20.03;15.27;101792.38;5004786;28;20026;-65
2023/05/07 10:39:06;;;;;;;0.20;0.20;;;;;;;19.89;15.58;101783.94;5004781;28;20041;-65
2023/05/07 10:41:32;;;;;;;0.20;0.20;;;;;;;19.85;16.36;101779.63;5004370;28;20018;-64
2023/05/07 10:44:01;;;;;;;0.20;0.20;;;;;;;20.49;16.84;101788.53;5004678;28;20030;-65
2023/05/07 10:46:26;;;;;;;0.20;0.20;;;;;;;21.70;16.69;101786.63;5004516;28;20026;-65
2023/05/07 10:49:05;;;;;;;0.20;0.20;;;;;;;22.12;14.91;101782.59;5004476;28;20037;-67
2023/05/07 10:51:32;;;;;;;0.20;0.20;;;;;;;21.58;14.06;101777.31;5004073;28;20131;-66
2023/05/07 10:54:09;;;;;;;0.20;0.20;;;;;;;20.45;14.71;101790.38;5004405;28;20497;-64
2023/05/07 10:56:39;;;;;;;0.20;0.20;;;;;;;19.98;15.39;101780.19;5004557;28;20030;-64
2023/05/07 10:59:20;;;;;;;0.20;0.20;;;;;;;19.65;15.83;101783.66;5004602;28;20061;-63
2023/05/07 11:01:54;;;;;;;0.20;0.20;;;;;;;19.06;16.78;101770.91;5004238;28;20118;-64
2023/05/07 11:04:27;;;;;;;0.20;0.20;;;;;;;18.73;17.20;101778.66;5004445;28;20030;-64
2023/05/07 11:07:08;;;;;;;0.20;0.20;;;;;;;18.50;17.96;101776.50;5004487;28;20094;-64
2023/05/07 11:09:52;;;;;;;0.20;0.20;;;;;;;18.39;18.07;101774.06;5004000;28;20022;-64
2023/05/07 11:12:37;;;;;;;0.20;0.20;;;;;;;18.39;18.01;101782.81;4986444;28;20077;-63
2023/05/07 11:15:04;;;;;;;0.20;0.20;;;;;;;17.92;18.02;101770.47;5004151;28;20026;-62
2023/05/07 11:17:31;;;;;;;0.20;0.20;;;;;;;17.38;18.17;101771.38;5004143;28;20030;-64
2023/05/07 11:19:57;;;;;;;0.20;0.20;;;;;;;17.14;18.45;101786.59;5004098;28;20022;-64
2023/05/07 11:22:32;;;;;;;0.20;0.20;;;;;;;16.96;18.56;101786.75;5004134;28;20073;-64
2023/05/07 11:25:05;;;;;;;0.20;0.20;;;;;;;16.55;18.70;101775.91;5004278;28;20025;-63